Terminal Aerodrome Forecast
Issued by NWS

Home | Current Version | Previous Version | Text Only | Print | Product List | Glossary On
Versions: 1 2 3 4 5 6 7 8 9 10 11 12 13 14 15 16 17 18 19 20
493
FTUS46 KMFR 282337
TAFOTH
TAF
KOTH 282337Z 2900/2924 28010KT P6SM OVC014
     FM290200 21004KT 3SM BR OVC008
     FM290900 VRB03KT 1SM BR OVC005
     FM291900 25008KT P6SM OVC012=

USA.gov is the U.S. government's official web portal to all federal, state and local government web resources and services.